sensor_id;sensor_type;location;lat;lon;timestamp;temperature;humidity
7206;DHT22;3644;53.480;10.004;2022-08-30T00:00:52;18.60;99.90
7206;DHT22;3644;53.480;10.004;2022-08-30T00:06:11;18.60;99.90
7206;DHT22;3644;53.480;10.004;2022-08-30T00:08:37;18.60;99.90
7206;DHT22;3644;53.480;10.004;2022-08-30T00:11:04;18.60;99.90
7206;DHT22;3644;53.480;10.004;2022-08-30T00:13:30;18.60;99.90
7206;DHT22;3644;53.480;10.004;2022-08-30T00:15:56;18.50;99.90
7206;DHT22;3644;53.480;10.004;2022-08-30T00:18:22;18.60;99.90
7206;DHT22;3644;53.480;10.004;2022-08-30T00:20:48;18.70;99.90
7206;DHT22;3644;53.480;10.004;2022-08-30T00:23:15;18.50;99.90
7206;DHT22;3644;53.480;10.004;2022-08-30T00:25:41;18.50;99.90
7206;DHT22;3644;53.480;10.004;2022-08-30T00:28:06;18.50;99.90
7206;DHT22;3644;53.480;10.004;2022-08-30T00:30:32;18.60;99.90
7206;DHT22;3644;53.480;10.004;2022-08-30T00:32:57;18.60;99.90
7206;DHT22;3644;53.480;10.004;2022-08-30T00:35:23;18.70;99.90
7206;DHT22;3644;53.480;10.004;2022-08-30T00:37:49;18.80;99.90
7206;DHT22;3644;53.480;10.004;2022-08-30T00:40:16;18.80;99.90
7206;DHT22;3644;53.480;10.004;2022-08-30T00:42:43;18.80;99.90
7206;DHT22;3644;53.480;10.004;2022-08-30T00:45:35;18.80;99.90
7206;DHT22;3644;53.480;10.004;2022-08-30T00:47:59;18.80;99.90
7206;DHT22;3644;53.480;10.004;2022-08-30T00:50:30;18.80;99.90
7206;DHT22;3644;53.480;10.004;2022-08-30T00:52:59;18.90;99.90
7206;DHT22;3644;53.480;10.004;2022-08-30T00:55:26;19.00;99.90
7206;DHT22;3644;53.480;10.004;2022-08-30T00:57:56;19.00;99.90
7206;DHT22;3644;53.480;10.004;2022-08-30T01:00:22;19.10;99.90
7206;DHT22;3644;53.480;10.004;2022-08-30T01:02:48;19.10;99.90
7206;DHT22;3644;53.480;10.004;2022-08-30T01:05:14;19.10;99.90
7206;DHT22;3644;53.480;10.004;2022-08-30T01:07:40;19.10;99.90
7206;DHT22;3644;53.480;10.004;2022-08-30T01:10:08;19.20;99.90
7206;DHT22;3644;53.480;10.004;2022-08-30T01:12:35;19.20;99.90
7206;DHT22;3644;53.480;10.004;2022-08-30T01:15:02;19.20;99.90
7206;DHT22;3644;53.480;10.004;2022-08-30T01:17:27;19.20;99.90
7206;DHT22;3644;53.480;10.004;2022-08-30T01:20:23;19.00;99.90
7206;DHT22;3644;53.480;10.004;2022-08-30T01:25:24;19.10;99.90
7206;DHT22;3644;53.480;10.004;2022-08-30T01:27:56;19.10;99.90
7206;DHT22;3644;53.480;10.004;2022-08-30T01:30:22;19.00;99.90
7206;DHT22;3644;53.480;10.004;2022-08-30T01:32:49;19.00;99.90
7206;DHT22;3644;53.480;10.004;2022-08-30T01:35:18;18.90;99.90
7206;DHT22;3644;53.480;10.004;2022-08-30T01:37:45;19.00;99.90
7206;DHT22;3644;53.480;10.004;2022-08-30T01:40:14;19.00;99.90
7206;DHT22;3644;53.480;10.004;2022-08-30T01:42:40;19.00;99.90
7206;DHT22;3644;53.480;10.004;2022-08-30T01:45:06;19.00;99.90
7206;DHT22;3644;53.480;10.004;2022-08-30T01:47:33;19.00;99.90
7206;DHT22;3644;53.480;10.004;2022-08-30T01:49:59;19.00;99.90
7206;DHT22;3644;53.480;10.004;2022-08-30T01:52:25;19.00;99.90
7206;DHT22;3644;53.480;10.004;2022-08-30T01:54:51;19.00;99.90
7206;DHT22;3644;53.480;10.004;2022-08-30T01:57:20;19.00;99.90
7206;DHT22;3644;53.480;10.004;2022-08-30T01:59:47;19.00;99.90
7206;DHT22;3644;53.480;10.004;2022-08-30T02:02:16;19.00;99.90
7206;DHT22;3644;53.480;10.004;2022-08-30T02:04:42;18.90;99.90
7206;DHT22;3644;53.480;10.004;2022-08-30T02:07:09;18.90;99.90
7206;DHT22;3644;53.480;10.004;2022-08-30T02:09:35;19.00;99.90
7206;DHT22;3644;53.480;10.004;2022-08-30T02:12:03;19.00;99.90
7206;DHT22;3644;53.480;10.004;2022-08-30T02:14:30;18.90;99.90
7206;DHT22;3644;53.480;10.004;2022-08-30T02:16:56;19.00;99.90
7206;DHT22;3644;53.480;10.004;2022-08-30T02:19:21;18.90;99.90
7206;DHT22;3644;53.480;10.004;2022-08-30T02:21:46;18.90;99.90
7206;DHT22;3644;53.480;10.004;2022-08-30T02:24:12;18.80;99.90
7206;DHT22;3644;53.480;10.004;2022-08-30T02:26:37;18.80;99.90
7206;DHT22;3644;53.480;10.004;2022-08-30T02:29:04;18.80;99.90
7206;DHT22;3644;53.480;10.004;2022-08-30T02:31:31;18.80;99.90
7206;DHT22;3644;53.480;10.004;2022-08-30T02:33:56;18.90;99.90
7206;DHT22;3644;53.480;10.004;2022-08-30T02:36:23;18.80;99.90
7206;DHT22;3644;53.480;10.004;2022-08-30T02:38:49;18.90;99.90
7206;DHT22;3644;53.480;10.004;2022-08-30T02:41:16;18.80;99.90
7206;DHT22;3644;53.480;10.004;2022-08-30T02:43:41;18.60;99.90
7206;DHT22;3644;53.480;10.004;2022-08-30T02:46:07;18.60;99.90
7206;DHT22;3644;53.480;10.004;2022-08-30T02:48:33;18.80;99.90
7206;DHT22;3644;53.480;10.004;2022-08-30T02:51:04;18.80;99.90
7206;DHT22;3644;53.480;10.004;2022-08-30T02:53:30;18.80;99.90
7206;DHT22;3644;53.480;10.004;2022-08-30T02:55:56;18.70;99.90
7206;DHT22;3644;53.480;10.004;2022-08-30T02:58:21;18.80;99.90
7206;DHT22;3644;53.480;10.004;2022-08-30T03:00:47;18.60;99.90
7206;DHT22;3644;53.480;10.004;2022-08-30T03:03:12;18.70;99.90
7206;DHT22;3644;53.480;10.004;2022-08-30T03:05:38;18.60;99.90
7206;DHT22;3644;53.480;10.004;2022-08-30T03:08:03;18.70;99.90
7206;DHT22;3644;53.480;10.004;2022-08-30T03:10:29;18.60;99.90
7206;DHT22;3644;53.480;10.004;2022-08-30T03:12:56;18.60;99.90
7206;DHT22;3644;53.480;10.004;2022-08-30T03:15:21;18.70;99.90
7206;DHT22;3644;53.480;10.004;2022-08-30T03:17:51;18.60;99.90
7206;DHT22;3644;53.480;10.004;2022-08-30T03:20:18;18.80;99.90
7206;DHT22;3644;53.480;10.004;2022-08-30T03:22:43;18.70;99.90
7206;DHT22;3644;53.480;10.004;2022-08-30T03:25:10;18.80;99.90
7206;DHT22;3644;53.480;10.004;2022-08-30T03:27:35;18.40;99.90
7206;DHT22;3644;53.480;10.004;2022-08-30T03:30:01;18.50;99.90
7206;DHT22;3644;53.480;10.004;2022-08-30T03:32:27;18.50;99.90
7206;DHT22;3644;53.480;10.004;2022-08-30T03:34:52;18.50;99.90
7206;DHT22;3644;53.480;10.004;2022-08-30T03:37:18;18.50;99.90
7206;DHT22;3644;53.480;10.004;2022-08-30T03:39:44;18.40;99.90
7206;DHT22;3644;53.480;10.004;2022-08-30T03:42:10;18.60;99.90
7206;DHT22;3644;53.480;10.004;2022-08-30T03:44:36;18.60;99.90
7206;DHT22;3644;53.480;10.004;2022-08-30T03:47:03;18.70;99.90
7206;DHT22;3644;53.480;10.004;2022-08-30T03:49:29;18.80;99.90
7206;DHT22;3644;53.480;10.004;2022-08-30T03:51:54;18.80;99.90
7206;DHT22;3644;53.480;10.004;2022-08-30T03:54:20;18.60;99.90
7206;DHT22;3644;53.480;10.004;2022-08-30T03:56:45;18.50;99.90
7206;DHT22;3644;53.480;10.004;2022-08-30T03:59:11;18.50;99.90
7206;DHT22;3644;53.480;10.004;2022-08-30T04:01:37;18.50;99.90
7206;DHT22;3644;53.480;10.004;2022-08-30T04:04:02;18.30;99.90
7206;DHT22;3644;53.480;10.004;2022-08-30T04:06:28;18.30;99.90
7206;DHT22;3644;53.480;10.004;2022-08-30T04:08:53;18.30;99.90
7206;DHT22;3644;53.480;10.004;2022-08-30T04:11:19;18.40;99.90
7206;DHT22;3644;53.480;10.004;2022-08-30T04:13:46;18.40;99.90
7206;DHT22;3644;53.480;10.004;2022-08-30T04:16:13;18.40;99.90
7206;DHT22;3644;53.480;10.004;2022-08-30T04:18:39;18.20;99.90
7206;DHT22;3644;53.480;10.004;2022-08-30T04:21:05;18.50;99.90
7206;DHT22;3644;53.480;10.004;2022-08-30T04:23:30;18.60;99.90
7206;DHT22;3644;53.480;10.004;2022-08-30T04:25:56;18.60;99.90
7206;DHT22;3644;53.480;10.004;2022-08-30T04:28:22;18.40;99.90
7206;DHT22;3644;53.480;10.004;2022-08-30T04:30:47;18.50;99.90
7206;DHT22;3644;53.480;10.004;2022-08-30T04:33:14;18.50;99.90
7206;DHT22;3644;53.480;10.004;2022-08-30T04:35:46;18.50;99.90
7206;DHT22;3644;53.480;10.004;2022-08-30T04:38:13;18.40;99.90
7206;DHT22;3644;53.480;10.004;2022-08-30T04:40:46;18.30;99.90
7206;DHT22;3644;53.480;10.004;2022-08-30T04:43:15;18.40;99.90
7206;DHT22;3644;53.480;10.004;2022-08-30T04:45:41;18.50;99.90
7206;DHT22;3644;53.480;10.004;2022-08-30T04:48:07;18.50;99.90
7206;DHT22;3644;53.480;10.004;2022-08-30T04:50:33;18.50;99.90
7206;DHT22;3644;53.480;10.004;2022-08-30T04:52:58;18.50;99.90
7206;DHT22;3644;53.480;10.004;2022-08-30T04:55:24;18.40;99.90
7206;DHT22;3644;53.480;10.004;2022-08-30T04:57:51;18.50;99.90
7206;DHT22;3644;53.480;10.004;2022-08-30T05:00:17;18.50;99.90
7206;DHT22;3644;53.480;10.004;2022-08-30T05:02:45;18.50;99.90
7206;DHT22;3644;53.480;10.004;2022-08-30T05:05:10;18.60;99.90
7206;DHT22;3644;53.480;10.004;2022-08-30T05:07:54;18.60;99.90
7206;DHT22;3644;53.480;10.004;2022-08-30T05:10:20;18.70;99.90
7206;DHT22;3644;53.480;10.004;2022-08-30T05:12:45;18.60;99.90
7206;DHT22;3644;53.480;10.004;2022-08-30T05:15:11;18.70;99.90
7206;DHT22;3644;53.480;10.004;2022-08-30T05:17:38;18.60;99.90
7206;DHT22;3644;53.480;10.004;2022-08-30T05:20:05;18.70;99.90
7206;DHT22;3644;53.480;10.004;2022-08-30T05:22:31;18.80;99.90
7206;DHT22;3644;53.480;10.004;2022-08-30T05:24:56;18.60;99.90
7206;DHT22;3644;53.480;10.004;2022-08-30T05:27:22;18.60;99.90
7206;DHT22;3644;53.480;10.004;2022-08-30T05:29:47;18.70;99.90
7206;DHT22;3644;53.480;10.004;2022-08-30T05:32:13;18.70;99.90
7206;DHT22;3644;53.480;10.004;2022-08-30T05:34:38;18.60;99.90
7206;DHT22;3644;53.480;10.004;2022-08-30T05:37:04;18.60;99.90
7206;DHT22;3644;53.480;10.004;2022-08-30T05:39:29;18.60;99.90
7206;DHT22;3644;53.480;10.004;2022-08-30T05:41:58;18.80;99.90
7206;DHT22;3644;53.480;10.004;2022-08-30T05:44:24;18.60;99.90
7206;DHT22;3644;53.480;10.004;2022-08-30T05:46:50;18.50;99.90
7206;DHT22;3644;53.480;10.004;2022-08-30T05:49:15;18.60;99.90
7206;DHT22;3644;53.480;10.004;2022-08-30T05:51:43;18.80;99.90
7206;DHT22;3644;53.480;10.004;2022-08-30T05:54:10;18.80;99.90
7206;DHT22;3644;53.480;10.004;2022-08-30T05:56:37;18.90;99.90
7206;DHT22;3644;53.480;10.004;2022-08-30T05:59:05;19.00;99.90
7206;DHT22;3644;53.480;10.004;2022-08-30T06:01:34;19.00;99.90
7206;DHT22;3644;53.480;10.004;2022-08-30T06:04:01;19.10;99.90
7206;DHT22;3644;53.480;10.004;2022-08-30T06:06:29;19.10;99.90
7206;DHT22;3644;53.480;10.004;2022-08-30T06:08:55;19.30;99.90
7206;DHT22;3644;53.480;10.004;2022-08-30T06:11:23;19.40;99.90
7206;DHT22;3644;53.480;10.004;2022-08-30T06:13:50;19.40;99.90
7206;DHT22;3644;53.480;10.004;2022-08-30T06:16:17;19.40;99.90
7206;DHT22;3644;53.480;10.004;2022-08-30T06:18:44;19.50;99.90
7206;DHT22;3644;53.480;10.004;2022-08-30T06:21:17;19.50;99.90
7206;DHT22;3644;53.480;10.004;2022-08-30T06:23:43;19.40;99.90
7206;DHT22;3644;53.480;10.004;2022-08-30T06:26:09;19.50;99.90
7206;DHT22;3644;53.480;10.004;2022-08-30T06:28:35;19.50;99.90
7206;DHT22;3644;53.480;10.004;2022-08-30T06:31:05;19.50;99.90
7206;DHT22;3644;53.480;10.004;2022-08-30T06:33:30;19.60;99.90
7206;DHT22;3644;53.480;10.004;2022-08-30T06:36:02;19.50;99.90
7206;DHT22;3644;53.480;10.004;2022-08-30T06:38:27;19.50;99.90
7206;DHT22;3644;53.480;10.004;2022-08-30T06:40:53;19.60;99.90
7206;DHT22;3644;53.480;10.004;2022-08-30T06:43:18;19.60;99.90
7206;DHT22;3644;53.480;10.004;2022-08-30T06:45:44;19.50;99.90
7206;DHT22;3644;53.480;10.004;2022-08-30T06:48:09;19.40;99.90
7206;DHT22;3644;53.480;10.004;2022-08-30T06:50:35;19.40;99.90
7206;DHT22;3644;53.480;10.004;2022-08-30T06:53:00;19.50;99.90
7206;DHT22;3644;53.480;10.004;2022-08-30T06:55:30;19.40;99.90
7206;DHT22;3644;53.480;10.004;2022-08-30T06:58:02;19.50;99.90
7206;DHT22;3644;53.480;10.004;2022-08-30T07:00:28;19.60;99.90
7206;DHT22;3644;53.480;10.004;2022-08-30T07:02:54;19.70;99.90
7206;DHT22;3644;53.480;10.004;2022-08-30T07:05:20;19.80;99.90
7206;DHT22;3644;53.480;10.004;2022-08-30T07:07:48;19.80;99.90
7206;DHT22;3644;53.480;10.004;2022-08-30T07:10:15;20.00;99.90
7206;DHT22;3644;53.480;10.004;2022-08-30T07:12:41;20.00;99.90
7206;DHT22;3644;53.480;10.004;2022-08-30T07:15:08;19.90;99.90
7206;DHT22;3644;53.480;10.004;2022-08-30T07:17:34;20.10;99.90
7206;DHT22;3644;53.480;10.004;2022-08-30T07:20:18;20.10;99.90
7206;DHT22;3644;53.480;10.004;2022-08-30T07:22:46;20.00;99.90
7206;DHT22;3644;53.480;10.004;2022-08-30T07:25:11;19.70;99.90
7206;DHT22;3644;53.480;10.004;2022-08-30T07:27:38;19.80;99.90
7206;DHT22;3644;53.480;10.004;2022-08-30T07:30:05;19.80;99.90
7206;DHT22;3644;53.480;10.004;2022-08-30T07:32:31;19.70;99.90
7206;DHT22;3644;53.480;10.004;2022-08-30T07:34:56;20.00;99.90
7206;DHT22;3644;53.480;10.004;2022-08-30T07:37:22;20.00;99.90
7206;DHT22;3644;53.480;10.004;2022-08-30T07:39:48;20.20;99.90
7206;DHT22;3644;53.480;10.004;2022-08-30T07:42:14;20.20;99.90
7206;DHT22;3644;53.480;10.004;2022-08-30T07:44:40;20.20;99.90
7206;DHT22;3644;53.480;10.004;2022-08-30T07:47:06;20.30;99.90
7206;DHT22;3644;53.480;10.004;2022-08-30T07:49:31;20.40;99.90
7206;DHT22;3644;53.480;10.004;2022-08-30T07:51:57;20.20;99.90
7206;DHT22;3644;53.480;10.004;2022-08-30T07:54:22;20.40;99.90
7206;DHT22;3644;53.480;10.004;2022-08-30T07:56:48;20.50;99.90
7206;DHT22;3644;53.480;10.004;2022-08-30T07:59:13;20.60;99.90
7206;DHT22;3644;53.480;10.004;2022-08-30T08:01:39;20.50;99.90
7206;DHT22;3644;53.480;10.004;2022-08-30T08:04:04;20.70;99.90
7206;DHT22;3644;53.480;10.004;2022-08-30T08:06:30;20.60;99.90
7206;DHT22;3644;53.480;10.004;2022-08-30T08:08:56;20.60;99.90
7206;DHT22;3644;53.480;10.004;2022-08-30T08:11:27;20.60;99.90
7206;DHT22;3644;53.480;10.004;2022-08-30T08:13:53;20.90;99.90
7206;DHT22;3644;53.480;10.004;2022-08-30T08:16:19;20.90;99.90
7206;DHT22;3644;53.480;10.004;2022-08-30T08:18:46;21.10;99.90
7206;DHT22;3644;53.480;10.004;2022-08-30T08:21:11;20.80;99.90
7206;DHT22;3644;53.480;10.004;2022-08-30T08:23:37;20.80;99.90
7206;DHT22;3644;53.480;10.004;2022-08-30T08:26:02;21.10;99.90
7206;DHT22;3644;53.480;10.004;2022-08-30T08:28:28;21.20;99.90
7206;DHT22;3644;53.480;10.004;2022-08-30T08:30:54;21.10;99.90
7206;DHT22;3644;53.480;10.004;2022-08-30T08:33:20;21.00;99.90
7206;DHT22;3644;53.480;10.004;2022-08-30T08:35:46;21.10;99.90
7206;DHT22;3644;53.480;10.004;2022-08-30T08:38:11;21.10;99.90
7206;DHT22;3644;53.480;10.004;2022-08-30T08:41:04;21.00;99.90
7206;DHT22;3644;53.480;10.004;2022-08-30T08:43:33;21.10;99.90
7206;DHT22;3644;53.480;10.004;2022-08-30T08:48:53;20.80;99.90
7206;DHT22;3644;53.480;10.004;2022-08-30T08:51:24;20.80;99.90
7206;DHT22;3644;53.480;10.004;2022-08-30T08:54:14;20.90;99.90
7206;DHT22;3644;53.480;10.004;2022-08-30T08:56:40;21.00;99.90
7206;DHT22;3644;53.480;10.004;2022-08-30T08:59:08;21.30;99.90
7206;DHT22;3644;53.480;10.004;2022-08-30T09:01:34;21.40;99.90
7206;DHT22;3644;53.480;10.004;2022-08-30T09:04:11;21.30;99.90
7206;DHT22;3644;53.480;10.004;2022-08-30T09:06:47;21.50;99.90
7206;DHT22;3644;53.480;10.004;2022-08-30T09:09:16;21.50;99.90
7206;DHT22;3644;53.480;10.004;2022-08-30T09:11:42;21.60;99.90
7206;DHT22;3644;53.480;10.004;2022-08-30T09:14:13;21.70;99.90
7206;DHT22;3644;53.480;10.004;2022-08-30T09:17:04;21.60;99.90
7206;DHT22;3644;53.480;10.004;2022-08-30T09:19:37;21.30;99.90
7206;DHT22;3644;53.480;10.004;2022-08-30T09:24:44;21.40;99.90
7206;DHT22;3644;53.480;10.004;2022-08-30T09:30:17;21.90;99.90
7206;DHT22;3644;53.480;10.004;2022-08-30T09:32:54;22.10;99.90
7206;DHT22;3644;53.480;10.004;2022-08-30T09:35:24;21.90;99.90
7206;DHT22;3644;53.480;10.004;2022-08-30T09:37:55;21.80;99.90
7206;DHT22;3644;53.480;10.004;2022-08-30T09:40:49;21.90;99.90
7206;DHT22;3644;53.480;10.004;2022-08-30T09:45:43;22.20;99.90
7206;DHT22;3644;53.480;10.004;2022-08-30T09:56:17;21.90;99.90
7206;DHT22;3644;53.480;10.004;2022-08-30T10:02:03;22.00;99.90
7206;DHT22;3644;53.480;10.004;2022-08-30T10:04:48;21.90;99.90
7206;DHT22;3644;53.480;10.004;2022-08-30T10:07:47;21.80;99.90
7206;DHT22;3644;53.480;10.004;2022-08-30T10:10:34;22.00;99.90
7206;DHT22;3644;53.480;10.004;2022-08-30T10:13:36;22.00;99.90
7206;DHT22;3644;53.480;10.004;2022-08-30T10:19:16;21.90;99.90
7206;DHT22;3644;53.480;10.004;2022-08-30T10:22:15;22.30;99.90
7206;DHT22;3644;53.480;10.004;2022-08-30T10:24:50;22.20;99.90
7206;DHT22;3644;53.480;10.004;2022-08-30T10:27:25;22.40;99.90
7206;DHT22;3644;53.480;10.004;2022-08-30T10:30:06;22.40;99.90
7206;DHT22;3644;53.480;10.004;2022-08-30T10:35:46;22.50;99.90
7206;DHT22;3644;53.480;10.004;2022-08-30T10:38:29;22.40;99.90
7206;DHT22;3644;53.480;10.004;2022-08-30T10:44:17;22.30;99.90
7206;DHT22;3644;53.480;10.004;2022-08-30T10:47:22;22.20;99.90
7206;DHT22;3644;53.480;10.004;2022-08-30T10:49:51;22.50;99.90
7206;DHT22;3644;53.480;10.004;2022-08-30T10:52:30;22.60;99.90
7206;DHT22;3644;53.480;10.004;2022-08-30T10:55:13;22.80;99.90
7206;DHT22;3644;53.480;10.004;2022-08-30T10:57:40;23.00;99.90
7206;DHT22;3644;53.480;10.004;2022-08-30T11:00:09;22.80;99.90
7206;DHT22;3644;53.480;10.004;2022-08-30T11:11:17;22.80;99.90
7206;DHT22;3644;53.480;10.004;2022-08-30T11:13:45;22.50;99.90
7206;DHT22;3644;53.480;10.004;2022-08-30T11:16:16;22.20;99.90
7206;DHT22;3644;53.480;10.004;2022-08-30T11:24:19;22.00;99.90
7206;DHT22;3644;53.480;10.004;2022-08-30T11:29:35;22.20;99.90
7206;DHT22;3644;53.480;10.004;2022-08-30T11:37:35;22.80;99.90
7206;DHT22;3644;53.480;10.004;2022-08-30T11:42:44;23.70;99.90
7206;DHT22;3644;53.480;10.004;2022-08-30T11:45:42;23.80;99.90
7206;DHT22;3644;53.480;10.004;2022-08-30T11:48:39;23.60;99.90
7206;DHT22;3644;53.480;10.004;2022-08-30T11:51:11;23.40;99.90
7206;DHT22;3644;53.480;10.004;2022-08-30T11:53:57;23.60;99.90
7206;DHT22;3644;53.480;10.004;2022-08-30T11:56:41;23.90;99.90
7206;DHT22;3644;53.480;10.004;2022-08-30T12:02:47;23.30;99.90
7206;DHT22;3644;53.480;10.004;2022-08-30T12:05:48;22.40;99.90
7206;DHT22;3644;53.480;10.004;2022-08-30T12:10:59;22.50;99.90
7206;DHT22;3644;53.480;10.004;2022-08-30T12:16:13;22.70;99.90
7206;DHT22;3644;53.480;10.004;2022-08-30T12:18:52;22.60;99.90
7206;DHT22;3644;53.480;10.004;2022-08-30T12:26:37;22.80;99.90
7206;DHT22;3644;53.480;10.004;2022-08-30T12:29:26;22.90;99.90
7206;DHT22;3644;53.480;10.004;2022-08-30T12:31:57;23.00;99.90
7206;DHT22;3644;53.480;10.004;2022-08-30T12:34:27;22.80;99.90
7206;DHT22;3644;53.480;10.004;2022-08-30T12:37:09;22.80;99.90
7206;DHT22;3644;53.480;10.004;2022-08-30T12:39:40;22.80;99.90
7206;DHT22;3644;53.480;10.004;2022-08-30T12:44:37;22.70;99.90
7206;DHT22;3644;53.480;10.004;2022-08-30T12:47:05;22.60;99.90
7206;DHT22;3644;53.480;10.004;2022-08-30T12:49:33;22.80;99.90
7206;DHT22;3644;53.480;10.004;2022-08-30T12:54:48;22.70;99.90
7206;DHT22;3644;53.480;10.004;2022-08-30T12:57:35;23.10;99.90
7206;DHT22;3644;53.480;10.004;2022-08-30T13:00:02;23.50;99.90
7206;DHT22;3644;53.480;10.004;2022-08-30T13:02:47;23.60;99.90
7206;DHT22;3644;53.480;10.004;2022-08-30T13:05:33;23.60;99.90
7206;DHT22;3644;53.480;10.004;2022-08-30T13:08:18;23.50;99.90
7206;DHT22;3644;53.480;10.004;2022-08-30T13:13:45;23.50;99.90
7206;DHT22;3644;53.480;10.004;2022-08-30T13:18:42;23.00;99.90
7206;DHT22;3644;53.480;10.004;2022-08-30T13:21:28;23.00;99.90
7206;DHT22;3644;53.480;10.004;2022-08-30T13:24:05;22.80;99.90
7206;DHT22;3644;53.480;10.004;2022-08-30T13:26:36;22.60;99.90
7206;DHT22;3644;53.480;10.004;2022-08-30T13:29:09;22.50;99.90
7206;DHT22;3644;53.480;10.004;2022-08-30T13:31:38;22.70;99.90
7206;DHT22;3644;53.480;10.004;2022-08-30T13:34:03;22.80;99.90
7206;DHT22;3644;53.480;10.004;2022-08-30T13:36:32;22.80;99.90
7206;DHT22;3644;53.480;10.004;2022-08-30T13:38:59;22.60;99.90
7206;DHT22;3644;53.480;10.004;2022-08-30T13:41:25;22.40;99.90
7206;DHT22;3644;53.480;10.004;2022-08-30T13:43:51;22.20;99.90
7206;DHT22;3644;53.480;10.004;2022-08-30T13:46:18;22.20;99.90
7206;DHT22;3644;53.480;10.004;2022-08-30T13:48:45;22.40;99.90
7206;DHT22;3644;53.480;10.004;2022-08-30T13:51:10;22.70;99.90
7206;DHT22;3644;53.480;10.004;2022-08-30T13:53:36;23.10;99.90
7206;DHT22;3644;53.480;10.004;2022-08-30T13:56:03;23.20;99.90
7206;DHT22;3644;53.480;10.004;2022-08-30T13:58:29;23.60;99.90
7206;DHT22;3644;53.480;10.004;2022-08-30T14:00:56;23.50;99.90
7206;DHT22;3644;53.480;10.004;2022-08-30T14:03:21;23.60;99.90
7206;DHT22;3644;53.480;10.004;2022-08-30T14:05:47;23.60;99.90
7206;DHT22;3644;53.480;10.004;2022-08-30T14:08:16;23.40;99.90
7206;DHT22;3644;53.480;10.004;2022-08-30T14:10:41;23.40;99.90
7206;DHT22;3644;53.480;10.004;2022-08-30T14:13:07;23.30;99.90
7206;DHT22;3644;53.480;10.004;2022-08-30T14:15:35;23.30;99.90
7206;DHT22;3644;53.480;10.004;2022-08-30T14:18:02;23.80;99.90
7206;DHT22;3644;53.480;10.004;2022-08-30T14:20:28;24.30;99.90
7206;DHT22;3644;53.480;10.004;2022-08-30T14:22:53;24.10;99.90
7206;DHT22;3644;53.480;10.004;2022-08-30T14:25:19;24.10;99.90
7206;DHT22;3644;53.480;10.004;2022-08-30T14:27:44;24.10;99.90
7206;DHT22;3644;53.480;10.004;2022-08-30T14:30:10;24.10;99.90
7206;DHT22;3644;53.480;10.004;2022-08-30T14:32:36;24.00;99.90
7206;DHT22;3644;53.480;10.004;2022-08-30T14:35:01;23.60;99.90
7206;DHT22;3644;53.480;10.004;2022-08-30T14:37:27;23.30;99.90
7206;DHT22;3644;53.480;10.004;2022-08-30T14:39:52;23.00;99.90
7206;DHT22;3644;53.480;10.004;2022-08-30T14:42:18;23.20;99.90
7206;DHT22;3644;53.480;10.004;2022-08-30T14:44:44;23.30;99.90
7206;DHT22;3644;53.480;10.004;2022-08-30T14:47:09;23.40;99.90
7206;DHT22;3644;53.480;10.004;2022-08-30T14:49:36;23.50;99.90
7206;DHT22;3644;53.480;10.004;2022-08-30T14:52:01;23.60;99.90
7206;DHT22;3644;53.480;10.004;2022-08-30T14:54:28;23.70;99.90
7206;DHT22;3644;53.480;10.004;2022-08-30T14:56:54;23.80;99.90
7206;DHT22;3644;53.480;10.004;2022-08-30T14:59:20;23.90;99.90
7206;DHT22;3644;53.480;10.004;2022-08-30T15:01:46;23.80;99.90
7206;DHT22;3644;53.480;10.004;2022-08-30T15:04:13;23.70;99.90
7206;DHT22;3644;53.480;10.004;2022-08-30T15:06:41;23.50;99.90
7206;DHT22;3644;53.480;10.004;2022-08-30T15:09:09;23.20;99.90
7206;DHT22;3644;53.480;10.004;2022-08-30T15:11:35;23.20;99.90
7206;DHT22;3644;53.480;10.004;2022-08-30T15:14:03;23.40;99.90
7206;DHT22;3644;53.480;10.004;2022-08-30T15:16:35;23.60;99.90
7206;DHT22;3644;53.480;10.004;2022-08-30T15:19:02;23.20;99.90
7206;DHT22;3644;53.480;10.004;2022-08-30T15:21:34;23.20;99.90
7206;DHT22;3644;53.480;10.004;2022-08-30T15:24:00;22.80;99.90
7206;DHT22;3644;53.480;10.004;2022-08-30T15:26:26;22.80;99.90
7206;DHT22;3644;53.480;10.004;2022-08-30T15:28:53;22.90;99.90
7206;DHT22;3644;53.480;10.004;2022-08-30T15:31:20;22.80;99.90
7206;DHT22;3644;53.480;10.004;2022-08-30T15:33:45;22.70;99.90
7206;DHT22;3644;53.480;10.004;2022-08-30T15:36:11;22.50;99.90
7206;DHT22;3644;53.480;10.004;2022-08-30T15:38:37;22.50;99.90
7206;DHT22;3644;53.480;10.004;2022-08-30T15:41:06;22.60;99.90
7206;DHT22;3644;53.480;10.004;2022-08-30T15:43:32;22.60;99.90
7206;DHT22;3644;53.480;10.004;2022-08-30T15:46:28;23.00;99.90
7206;DHT22;3644;53.480;10.004;2022-08-30T15:49:17;22.90;99.90
7206;DHT22;3644;53.480;10.004;2022-08-30T15:51:44;23.20;99.90
7206;DHT22;3644;53.480;10.004;2022-08-30T15:54:12;23.40;99.90
7206;DHT22;3644;53.480;10.004;2022-08-30T15:56:38;23.30;99.90
7206;DHT22;3644;53.480;10.004;2022-08-30T15:59:03;23.00;99.90
7206;DHT22;3644;53.480;10.004;2022-08-30T16:01:29;23.10;99.90
7206;DHT22;3644;53.480;10.004;2022-08-30T16:03:55;23.00;99.90
7206;DHT22;3644;53.480;10.004;2022-08-30T16:06:22;22.90;99.90
7206;DHT22;3644;53.480;10.004;2022-08-30T16:08:50;23.20;99.90
7206;DHT22;3644;53.480;10.004;2022-08-30T16:11:18;23.10;99.90
7206;DHT22;3644;53.480;10.004;2022-08-30T16:13:44;22.80;99.90
7206;DHT22;3644;53.480;10.004;2022-08-30T16:16:11;22.60;99.90
7206;DHT22;3644;53.480;10.004;2022-08-30T16:18:37;22.30;99.90
7206;DHT22;3644;53.480;10.004;2022-08-30T16:21:09;22.20;99.90
7206;DHT22;3644;53.480;10.004;2022-08-30T16:23:36;22.10;99.90
7206;DHT22;3644;53.480;10.004;2022-08-30T16:26:03;22.10;99.90
7206;DHT22;3644;53.480;10.004;2022-08-30T16:28:29;22.20;99.90
7206;DHT22;3644;53.480;10.004;2022-08-30T16:30:55;22.20;99.90
7206;DHT22;3644;53.480;10.004;2022-08-30T16:33:21;22.10;99.90
7206;DHT22;3644;53.480;10.004;2022-08-30T16:35:51;22.20;99.90
7206;DHT22;3644;53.480;10.004;2022-08-30T16:38:17;22.10;99.90
7206;DHT22;3644;53.480;10.004;2022-08-30T16:40:43;21.80;99.90
7206;DHT22;3644;53.480;10.004;2022-08-30T16:43:08;21.70;99.90
7206;DHT22;3644;53.480;10.004;2022-08-30T16:45:38;21.50;99.90
7206;DHT22;3644;53.480;10.004;2022-08-30T16:48:04;21.50;99.90
7206;DHT22;3644;53.480;10.004;2022-08-30T16:50:30;21.60;99.90
7206;DHT22;3644;53.480;10.004;2022-08-30T16:52:55;21.40;99.90
7206;DHT22;3644;53.480;10.004;2022-08-30T16:55:21;21.30;99.90
7206;DHT22;3644;53.480;10.004;2022-08-30T16:57:46;21.10;99.90
7206;DHT22;3644;53.480;10.004;2022-08-30T17:00:13;21.10;99.90
7206;DHT22;3644;53.480;10.004;2022-08-30T17:02:39;21.10;99.90
7206;DHT22;3644;53.480;10.004;2022-08-30T17:05:05;21.00;99.90
7206;DHT22;3644;53.480;10.004;2022-08-30T17:07:30;20.80;99.90
7206;DHT22;3644;53.480;10.004;2022-08-30T17:09:56;20.70;99.90
7206;DHT22;3644;53.480;10.004;2022-08-30T17:12:22;20.80;99.90
7206;DHT22;3644;53.480;10.004;2022-08-30T17:14:48;20.80;99.60
7206;DHT22;3644;53.480;10.004;2022-08-30T17:17:14;20.80;99.80
7206;DHT22;3644;53.480;10.004;2022-08-30T17:19:40;20.80;98.20
7206;DHT22;3644;53.480;10.004;2022-08-30T17:22:07;20.90;97.10